Accueil
METAR-TAF:

METAR-TAF

Aéroports :

Cranfield, Angleterre

latitude: 52-04N, longitude: 000-37W, altitude: 111 m

Observation

Le bulletin a été fait il y a 5 heures et 15 minutes, à 15:20 UTC
Vent 5 kt de ouest/nord-ouest, variant entre ouest et nord
Température 15°C
Humidité 67%
Pression 1026 hPa
Visibilité 10 km ou plus
Quelques nuages à une hauteur de 3000 ft

METAR: EGTC 191520Z 30005KT 270V350 9999 FEW030 15/09 Q1026

Heure: 21:35 (20:35 UTC)

Prévision

Le bulletin a été fait il y a 6 heures et 33 minutes, à 14:02 UTC
Prévision valable du 19 à 15 UTC au 19 à 18 UTC
Vent 6 kt de ouest
Visibilité 10 km ou plus
Quelques nuages à une hauteur de 3000 ft

TAF: EGTC 191402Z 1915/1918 26006KT 9999 FEW030

Observations et prévisions météorologiques de plus de 4000 aéroports (messages METAR et TAF).

Les stations disponibles sont représentées par des disques jaunes et rouges sur la carte.

Passer la souris dessus pour voir le nom de la station.

Cliquer dessus pour voir les observations et prévisions météorologiques.

Pour changer de carte: cliquez sur les boutons verts avec une croix noire pour zoomer, sur le bouton vert avec un tiret pour effectuer un zoom arrière, ou sur les flèches vertes pour les cartes adjacentes.


METAR-TAF: